createdAt,value
2018-12-03T00:06:57.579Z,5
2018-12-03T00:17:05.404Z,8
2018-12-03T00:27:13.302Z,7
2018-12-03T00:37:22.738Z,6
2018-12-03T00:47:30.185Z,4
2018-12-03T00:48:14.632Z,4
2018-12-03T00:58:22.802Z,4
2018-12-03T01:08:31.233Z,3
2018-12-03T01:18:39.073Z,5
2018-12-03T01:28:46.377Z,3
2018-12-03T01:38:55.272Z,3
2018-12-03T01:49:02.712Z,3
2018-12-03T01:59:08.687Z,3
2018-12-03T02:09:15.545Z,3
2018-12-03T02:19:22.571Z,3
2018-12-03T02:29:30.872Z,5
2018-12-03T02:39:39.420Z,4
2018-12-03T02:49:46.729Z,4
2018-12-03T02:59:53.536Z,3
2018-12-03T03:10:01.138Z,4
2018-12-03T03:20:08.279Z,5
2018-12-03T03:30:16.947Z,2
2018-12-03T03:40:24.768Z,4
2018-12-03T03:50:32.166Z,2
2018-12-03T04:00:39.967Z,2
2018-12-03T04:10:46.731Z,3
2018-12-03T04:20:53.593Z,2
2018-12-03T04:31:02.129Z,3
2018-12-03T04:41:11.705Z,6
2018-12-03T04:51:17.288Z,3
2018-12-03T05:01:24.032Z,2
2018-12-03T05:11:33.330Z,3
2018-12-03T05:21:39.655Z,2
2018-12-03T05:31:45.529Z,3
2018-12-03T05:41:54.464Z,4
2018-12-03T05:52:03.223Z,5
2018-12-03T06:02:10.281Z,4
2018-12-03T06:12:16.892Z,4
2018-12-03T06:22:23.929Z,4
2018-12-03T06:32:32.316Z,7
2018-12-03T06:42:41.498Z,3
2018-12-03T06:52:48.508Z,4
2018-12-03T07:02:57.545Z,4
2018-12-03T07:13:03.289Z,3
2018-12-03T07:23:11.803Z,4
2018-12-03T07:33:20.821Z,4
2018-12-03T07:43:24.172Z,3
2018-12-03T07:53:35.022Z,5
2018-12-03T08:03:43.393Z,4
2018-12-03T08:13:50.672Z,4
2018-12-03T08:17:08.573Z,3
2018-12-03T08:21:22.817Z,7
2018-12-03T08:28:52.767Z,3
2018-12-03T08:39:00.189Z,4
2018-12-03T08:49:07.685Z,5
2018-12-03T08:59:17.501Z,6
2018-12-03T09:09:28.786Z,2
2018-12-03T09:19:36.969Z,4
2018-12-03T09:23:06.898Z,3
2018-12-03T09:33:14.219Z,3
2018-12-03T09:37:31.664Z,3
2018-12-03T09:47:35.633Z,5
2018-12-03T09:57:42.986Z,5
2018-12-03T10:07:51.187Z,6
2018-12-03T10:17:57.847Z,3
2018-12-03T10:28:04.717Z,6
2018-12-03T10:38:13.269Z,3
2018-12-03T10:48:20.728Z,4
2018-12-03T10:50:46.165Z,2
2018-12-03T10:53:01.951Z,5
2018-12-03T10:54:13.584Z,3
2018-12-03T11:04:32.483Z,4
2018-12-03T11:09:26.238Z,6
2018-12-03T11:19:37.051Z,4
2018-12-03T11:20:47.444Z,3
2018-12-03T11:31:01.152Z,3
2018-12-03T11:41:04.210Z,2
2018-12-03T11:51:13.446Z,3
2018-12-03T12:01:33.794Z,3
2018-12-03T12:10:16.127Z,4
2018-12-03T12:20:23.754Z,3
2018-12-03T12:30:32.947Z,3
2018-12-03T12:32:14.322Z,3
2018-12-03T12:42:16.217Z,5
2018-12-03T12:46:33.082Z,3
2018-12-03T12:56:41.955Z,7
2018-12-03T13:01:59.514Z,5
2018-12-03T13:12:10.302Z,5
2018-12-03T13:15:26.430Z,4
2018-12-03T13:25:32.797Z,4
2018-12-03T13:35:42.282Z,3
2018-12-03T13:45:50.736Z,3
2018-12-03T13:55:09.454Z,4
2018-12-03T14:02:32.855Z,7
2018-12-03T14:12:42.318Z,4
2018-12-03T14:19:00.659Z,6
2018-12-03T14:24:23.764Z,6
2018-12-03T14:26:36.181Z,11
2018-12-03T14:29:48.808Z,5
2018-12-03T14:39:59.557Z,3
2018-12-03T14:50:08.667Z,5
2018-12-03T15:00:17.825Z,5
2018-12-03T15:10:29.011Z,4
2018-12-03T15:33:05.116Z,4
2018-12-03T15:43:25.348Z,3
2018-12-03T15:47:10.372Z,6
2018-12-03T15:50:31.904Z,10
2018-12-03T16:00:39.183Z,3
2018-12-03T16:01:51.861Z,6
2018-12-03T16:12:00.014Z,10
2018-12-03T16:14:33.062Z,12
2018-12-03T16:24:33.552Z,9
2018-12-03T16:34:43.442Z,12
2018-12-03T16:51:09.657Z,12
2018-12-03T17:01:19.775Z,11
2018-12-03T17:11:23.278Z,7
2018-12-03T17:21:33.833Z,10
2018-12-03T17:31:38.399Z,7
2018-12-03T17:41:46.497Z,8
2018-12-03T17:51:53.520Z,11
2018-12-03T18:02:01.164Z,7
2018-12-03T18:08:32.820Z,8
2018-12-03T18:18:39.315Z,9
2018-12-03T18:28:47.087Z,8
2018-12-03T18:38:55.708Z,7
2018-12-03T18:49:04.554Z,6
2018-12-03T18:59:12.561Z,4
2018-12-03T19:09:20.724Z,4
2018-12-03T19:19:27.845Z,5
2018-12-03T19:29:39.890Z,6
2018-12-03T19:39:39.349Z,6
2018-12-03T19:49:45.760Z,6
2018-12-03T19:59:51.431Z,4
2018-12-03T20:09:58.030Z,3
2018-12-03T20:20:05.862Z,3
2018-12-03T20:30:13.206Z,4
2018-12-03T20:40:21.390Z,5
2018-12-03T20:50:28.242Z,5
2018-12-03T21:00:35.080Z,4
2018-12-03T21:10:42.830Z,3
2018-12-03T21:14:58.821Z,3
2018-12-03T21:25:05.639Z,3
2018-12-03T21:35:13.571Z,2
2018-12-03T21:45:25.065Z,3
2018-12-03T21:55:31.951Z,4
2018-12-03T22:05:40.251Z,5
2018-12-03T22:15:48.694Z,4
2018-12-03T22:25:54.310Z,4
2018-12-03T22:36:01.941Z,3
2018-12-03T22:46:10.195Z,4
2018-12-03T22:56:18.393Z,4
2018-12-03T23:06:24.704Z,4
2018-12-03T23:16:31.135Z,4
2018-12-03T23:26:39.842Z,4
2018-12-03T23:36:48.310Z,3
2018-12-03T23:46:56.837Z,4
2018-12-03T23:57:03.451Z,4
